createdAt,value
2017-05-19T00:00:18.982Z,1006.8
2017-05-19T00:01:19.015Z,1006.82
2017-05-19T00:02:19.046Z,1006.85
2017-05-19T00:03:19.090Z,1006.87
2017-05-19T00:04:19.129Z,1006.83
2017-05-19T00:05:19.156Z,1006.82
2017-05-19T00:06:19.179Z,1006.84
2017-05-19T00:07:19.231Z,1006.85
2017-05-19T00:08:19.272Z,1006.83
2017-05-19T00:09:19.293Z,1006.83
2017-05-19T00:10:19.340Z,1006.82
2017-05-19T00:11:19.378Z,1006.77
2017-05-19T00:12:19.410Z,1006.79
2017-05-19T00:13:19.453Z,1006.81
2017-05-19T00:14:19.471Z,1006.77
2017-05-19T00:15:19.526Z,1006.73
2017-05-19T00:16:19.554Z,1006.77
2017-05-19T00:17:19.585Z,1006.69
2017-05-19T00:18:19.631Z,1006.68
2017-05-19T00:19:19.655Z,1006.66
2017-05-19T00:20:19.706Z,1006.61
2017-05-19T00:21:19.742Z,1006.64
2017-05-19T00:22:19.786Z,1006.64
2017-05-19T00:23:19.817Z,1006.61
2017-05-19T00:24:19.854Z,1006.62
2017-05-19T00:25:19.890Z,1006.56
2017-05-19T00:26:19.909Z,1006.6
2017-05-19T00:27:19.965Z,1006.56
2017-05-19T00:28:19.988Z,1006.59
2017-05-19T00:29:20.037Z,1006.58
2017-05-19T00:30:20.074Z,1006.57
2017-05-19T00:31:20.112Z,1006.63
2017-05-19T00:32:20.149Z,1006.58
2017-05-19T00:33:20.183Z,1006.67
2017-05-19T00:34:20.305Z,1006.63
2017-05-19T00:35:20.253Z,1006.63
2017-05-19T00:36:20.291Z,1006.63
2017-05-19T00:37:20.325Z,1006.63
2017-05-19T00:38:20.359Z,1006.59
2017-05-19T00:39:20.395Z,1006.59
2017-05-19T00:40:20.432Z,1006.61
2017-05-19T00:41:20.472Z,1006.64
2017-05-19T00:42:20.512Z,1006.65
2017-05-19T00:43:20.540Z,1006.64
2017-05-19T00:44:20.578Z,1006.72
2017-05-19T00:45:20.612Z,1006.67
2017-05-19T00:46:20.653Z,1006.71
2017-05-19T00:47:20.698Z,1006.79
2017-05-19T00:48:20.725Z,1006.78
2017-05-19T00:49:20.759Z,1006.77
2017-05-19T00:50:20.773Z,1006.8
2017-05-19T00:51:20.833Z,1006.76
2017-05-19T00:52:20.866Z,1006.84
2017-05-19T00:53:20.906Z,1006.78
2017-05-19T00:54:20.938Z,1006.83
2017-05-19T00:55:20.976Z,1006.88
2017-05-19T00:56:21.017Z,1006.81
2017-05-19T00:57:21.034Z,1006.8
2017-05-19T00:58:21.089Z,1006.86
2017-05-19T00:59:21.123Z,1006.87
2017-05-19T01:00:21.155Z,1006.86
2017-05-19T01:01:21.193Z,1006.85
2017-05-19T01:02:21.230Z,1006.88
2017-05-19T01:03:21.271Z,1006.88
2017-05-19T01:04:21.300Z,1006.87
2017-05-19T01:05:21.342Z,1006.87
2017-05-19T01:06:21.375Z,1006.87
2017-05-19T01:07:21.390Z,1006.83
2017-05-19T01:08:21.442Z,1006.8
2017-05-19T01:09:21.486Z,1006.82
2017-05-19T01:10:21.504Z,1006.83
2017-05-19T01:11:21.561Z,1006.86
2017-05-19T01:12:21.591Z,1006.83
2017-05-19T01:13:21.633Z,1006.82
2017-05-19T01:14:21.664Z,1006.82
2017-05-19T01:15:21.680Z,1006.82
2017-05-19T01:16:21.738Z,1006.86
2017-05-19T01:17:21.772Z,1006.88
2017-05-19T01:18:21.796Z,1006.83
2017-05-19T01:19:21.843Z,1006.87
2017-05-19T01:20:21.879Z,1006.85
2017-05-19T01:21:21.946Z,1006.87
2017-05-19T01:22:21.952Z,1006.91
2017-05-19T01:23:21.987Z,1006.89
2017-05-19T01:24:22.081Z,1006.88
2017-05-19T01:25:22.061Z,1006.84
2017-05-19T01:26:22.098Z,1006.83
2017-05-19T01:27:22.132Z,1006.82
2017-05-19T01:28:22.167Z,1006.83
2017-05-19T01:29:22.205Z,1006.86
2017-05-19T01:30:22.324Z,1006.87
2017-05-19T01:31:22.274Z,1006.9
2017-05-19T01:32:22.315Z,1006.88
2017-05-19T01:33:22.351Z,1006.93
2017-05-19T01:34:22.384Z,1006.94
2017-05-19T01:35:22.409Z,1006.97
2017-05-19T01:36:22.456Z,1006.94
2017-05-19T01:37:22.493Z,1006.94
2017-05-19T01:38:22.529Z,1006.92
2017-05-19T01:39:22.564Z,1006.89
2017-05-19T01:40:22.604Z,1006.92
2017-05-19T01:41:22.641Z,1006.93
2017-05-19T01:42:22.667Z,1006.95
2017-05-19T01:43:22.709Z,1006.95
2017-05-19T01:44:22.744Z,1006.95
2017-05-19T01:45:22.779Z,1006.91
2017-05-19T01:46:22.812Z,1006.94
2017-05-19T01:47:22.870Z,1006.93
2017-05-19T01:48:22.865Z,1006.89
2017-05-19T01:49:22.905Z,1006.88
2017-05-19T01:50:22.957Z,1006.92
2017-05-19T01:51:23.002Z,1006.94
2017-05-19T01:52:23.029Z,1006.9
2017-05-19T01:53:23.063Z,1006.88
2017-05-19T01:54:23.101Z,1006.88
2017-05-19T01:55:23.134Z,1006.91
2017-05-19T01:56:23.168Z,1006.89
2017-05-19T01:57:23.207Z,1006.95
2017-05-19T01:58:23.245Z,1006.9
2017-05-19T01:59:23.282Z,1006.9
2017-05-19T02:00:23.313Z,1006.87
2017-05-19T02:01:23.344Z,1006.91
2017-05-19T02:02:23.394Z,1006.89
2017-05-19T02:03:23.419Z,1006.93
2017-05-19T02:04:23.461Z,1006.94
2017-05-19T02:05:23.494Z,1006.91
2017-05-19T02:06:23.529Z,1006.91
2017-05-19T02:07:23.565Z,1006.9
2017-05-19T02:08:23.599Z,1006.89
2017-05-19T02:09:23.627Z,1006.86
2017-05-19T02:10:23.674Z,1006.85
2017-05-19T02:11:23.713Z,1006.84
2017-05-19T02:12:23.744Z,1006.81
2017-05-19T02:13:23.780Z,1006.78
2017-05-19T02:14:23.816Z,1006.77
2017-05-19T02:15:23.850Z,1006.8
2017-05-19T02:16:23.887Z,1006.81
2017-05-19T02:17:23.919Z,1006.8
2017-05-19T02:18:23.955Z,1006.76
2017-05-19T02:19:24.045Z,1006.81
2017-05-19T02:20:24.012Z,1006.81
2017-05-19T02:21:24.066Z,1006.78
2017-05-19T02:22:24.099Z,1006.8
2017-05-19T02:23:24.112Z,1006.78
2017-05-19T02:24:24.169Z,1006.8
2017-05-19T02:25:24.207Z,1006.76
2017-05-19T02:26:24.241Z,1006.77
2017-05-19T02:27:24.277Z,1006.77
2017-05-19T02:28:24.316Z,1006.74
2017-05-19T02:29:24.347Z,1006.77
2017-05-19T02:30:24.383Z,1006.76
2017-05-19T02:31:24.402Z,1006.79
2017-05-19T02:32:24.456Z,1006.75
2017-05-19T02:33:24.491Z,1006.75
2017-05-19T02:34:24.529Z,1006.68
2017-05-19T02:35:24.543Z,1006.7
2017-05-19T02:36:24.603Z,1006.7
2017-05-19T02:37:24.636Z,1006.71
2017-05-19T02:38:24.667Z,1006.7
2017-05-19T02:39:24.705Z,1006.68
2017-05-19T02:40:24.741Z,1006.66
2017-05-19T02:41:24.779Z,1006.66
2017-05-19T02:42:24.810Z,1006.66
2017-05-19T02:43:24.836Z,1006.7
2017-05-19T02:44:24.866Z,1006.71
2017-05-19T02:45:24.922Z,1006.71
2017-05-19T02:46:24.957Z,1006.73
2017-05-19T02:47:24.991Z,1006.75
2017-05-19T02:48:25.027Z,1006.72
2017-05-19T02:49:25.058Z,1006.73
2017-05-19T02:50:25.105Z,1006.73
2017-05-19T02:51:25.131Z,1006.71
2017-05-19T02:52:25.163Z,1006.74
2017-05-19T02:53:25.204Z,1006.74
2017-05-19T02:54:25.242Z,1006.73
2017-05-19T02:55:25.271Z,1006.73
2017-05-19T02:56:25.307Z,1006.76
2017-05-19T02:57:25.325Z,1006.74
2017-05-19T02:58:25.380Z,1006.75
2017-05-19T02:59:25.413Z,1006.7
2017-05-19T03:00:25.436Z,1006.73
2017-05-19T03:01:25.485Z,1006.72
2017-05-19T03:02:25.524Z,1006.67
2017-05-19T03:03:25.559Z,1006.69
2017-05-19T03:04:25.589Z,1006.69
2017-05-19T03:05:25.630Z,1006.63
2017-05-19T03:06:25.659Z,1006.63
2017-05-19T03:07:25.697Z,1006.63
2017-05-19T03:08:25.735Z,1006.61
2017-05-19T03:09:25.769Z,1006.64
2017-05-19T03:10:25.788Z,1006.65
2017-05-19T03:11:25.841Z,1006.67
2017-05-19T03:12:25.874Z,1006.64
2017-05-19T03:13:25.915Z,1006.63
2017-05-19T03:14:25.922Z,1006.67
2017-05-19T03:15:25.978Z,1006.69
2017-05-19T03:16:26.022Z,1006.71
2017-05-19T03:17:26.045Z,1006.73
2017-05-19T03:18:26.091Z,1006.66
2017-05-19T03:19:26.125Z,1006.72
2017-05-19T03:20:26.159Z,1006.69
2017-05-19T03:21:26.197Z,1006.67
2017-05-19T03:22:26.232Z,1006.72
2017-05-19T03:23:26.248Z,1006.69
2017-05-19T03:24:26.300Z,1006.69
2017-05-19T03:25:26.341Z,1006.77
2017-05-19T03:26:26.369Z,1006.72
2017-05-19T03:27:26.406Z,1006.69
2017-05-19T03:28:26.443Z,1006.76
2017-05-19T03:29:26.479Z,1006.74
2017-05-19T03:30:26.515Z,1006.74
2017-05-19T03:31:26.534Z,1006.78
2017-05-19T03:32:26.582Z,1006.78
2017-05-19T03:33:26.622Z,1006.82
2017-05-19T03:34:26.636Z,1006.8
2017-05-19T03:35:26.688Z,1006.79
2017-05-19T03:36:26.724Z,1006.8
2017-05-19T03:37:26.751Z,1006.76
2017-05-19T03:38:26.797Z,1006.81
2017-05-19T03:39:26.829Z,1006.73
2017-05-19T03:40:26.870Z,1006.7
2017-05-19T03:41:26.908Z,1006.71
2017-05-19T03:42:26.938Z,1006.71
2017-05-19T03:43:26.970Z,1006.65
2017-05-19T03:44:27.008Z,1006.71
2017-05-19T03:45:27.048Z,1006.69
2017-05-19T03:46:27.078Z,1006.7
2017-05-19T03:47:27.117Z,1006.71
2017-05-19T03:48:27.155Z,1006.71
2017-05-19T03:49:27.169Z,1006.69
2017-05-19T03:50:27.222Z,1006.72
2017-05-19T03:51:27.235Z,1006.73
2017-05-19T03:52:27.294Z,1006.7
2017-05-19T03:53:27.330Z,1006.63
2017-05-19T03:54:27.349Z,1006.69
2017-05-19T03:55:27.399Z,1006.72
2017-05-19T03:56:27.416Z,1006.71
2017-05-19T03:57:27.470Z,1006.66
2017-05-19T03:58:27.505Z,1006.71
2017-05-19T03:59:27.544Z,1006.75
2017-05-19T04:00:27.758Z,1006.76
2017-05-19T04:01:27.611Z,1006.76
2017-05-19T04:02:27.643Z,1006.77
2017-05-19T04:03:27.667Z,1006.81
2017-05-19T04:04:27.719Z,1006.89
2017-05-19T04:05:27.751Z,1006.92
2017-05-19T04:06:27.789Z,1006.9
2017-05-19T04:07:27.812Z,1006.95
2017-05-19T04:08:27.855Z,1006.93
2017-05-19T04:09:27.894Z,1007.02
2017-05-19T04:10:27.914Z,1007.08
2017-05-19T04:11:27.963Z,1007.11
2017-05-19T04:12:28.000Z,1007.12
2017-05-19T04:13:28.039Z,1007.2
2017-05-19T04:14:28.059Z,1007.19
2017-05-19T04:15:28.108Z,1007.2
2017-05-19T04:16:28.148Z,1007.17
2017-05-19T04:17:28.178Z,1007.19
2017-05-19T04:18:28.213Z,1007.19
2017-05-19T04:19:28.248Z,1007.2
2017-05-19T04:20:28.289Z,1007.16
2017-05-19T04:21:28.323Z,1007.09
2017-05-19T04:22:28.354Z,1007.09
2017-05-19T04:23:28.394Z,1007.11
2017-05-19T04:24:28.433Z,1007.09
2017-05-19T04:25:28.465Z,1007.13
2017-05-19T04:26:28.503Z,1007.03
2017-05-19T04:27:28.541Z,1007.01
2017-05-19T04:28:28.573Z,1007
2017-05-19T04:29:28.799Z,1006.99
2017-05-19T04:30:28.645Z,1006.99
2017-05-19T04:31:28.678Z,1006.96
2017-05-19T04:32:28.715Z,1006.94
2017-05-19T04:33:28.756Z,1006.93
2017-05-19T04:34:28.792Z,1007
2017-05-19T04:35:28.823Z,1006.94
2017-05-19T04:36:28.842Z,1006.87
2017-05-19T04:37:28.897Z,1006.85
2017-05-19T04:38:28.914Z,1006.95
2017-05-19T04:39:28.957Z,1006.91
2017-05-19T04:40:29.008Z,1006.95
2017-05-19T04:41:29.043Z,1006.94
2017-05-19T04:42:29.078Z,1006.96
2017-05-19T04:43:29.114Z,1006.97
2017-05-19T04:44:29.152Z,1006.89
2017-05-19T04:45:29.182Z,1006.88
2017-05-19T04:46:29.224Z,1006.89
2017-05-19T04:47:29.261Z,1006.92
2017-05-19T04:48:29.292Z,1006.93
2017-05-19T04:49:29.331Z,1006.94
2017-05-19T04:50:29.363Z,1006.93
2017-05-19T04:51:29.407Z,1006.94
2017-05-19T04:52:29.436Z,1006.97
2017-05-19T04:53:29.459Z,1006.97
2017-05-19T04:54:29.515Z,1006.85
2017-05-19T04:55:29.549Z,1006.88
2017-05-19T04:56:29.585Z,1006.8
2017-05-19T04:57:29.620Z,1006.89
2017-05-19T04:58:29.658Z,1006.85
2017-05-19T04:59:29.694Z,1006.88
2017-05-19T05:00:29.761Z,1006.83
2017-05-19T05:01:29.765Z,1006.87
2017-05-19T05:02:30.075Z,1006.87
2017-05-19T05:03:29.842Z,1006.86
2017-05-19T05:04:29.877Z,1006.87
2017-05-19T05:05:29.913Z,1006.85
2017-05-19T05:06:29.948Z,1006.8
2017-05-19T05:07:29.984Z,1006.83
2017-05-19T05:08:30.024Z,1006.83
2017-05-19T05:09:30.058Z,1006.84
2017-05-19T05:10:30.094Z,1006.8
2017-05-19T05:11:30.133Z,1006.86
2017-05-19T05:12:30.164Z,1006.81
2017-05-19T05:13:30.207Z,1006.87
2017-05-19T05:14:30.244Z,1006.93
2017-05-19T05:15:30.265Z,1006.96
2017-05-19T05:16:30.296Z,1006.92
2017-05-19T05:17:30.350Z,1006.94
2017-05-19T05:18:30.390Z,1006.9
2017-05-19T05:19:30.418Z,1006.9
2017-05-19T05:20:30.461Z,1006.96
2017-05-19T05:21:30.500Z,1006.94
2017-05-19T05:22:30.536Z,1006.98
2017-05-19T05:23:30.558Z,1006.9
2017-05-19T05:24:30.609Z,1006.85
2017-05-19T05:25:30.650Z,1006.89
2017-05-19T05:26:30.687Z,1006.9
2017-05-19T05:27:30.719Z,1006.98
2017-05-19T05:28:30.761Z,1006.95
2017-05-19T05:29:30.795Z,1006.9
2017-05-19T05:30:30.835Z,1006.85
2017-05-19T05:31:30.857Z,1006.83
2017-05-19T05:32:30.910Z,1006.84
2017-05-19T05:33:30.955Z,1006.82
2017-05-19T05:34:30.990Z,1006.82
2017-05-19T05:35:31.029Z,1006.86
2017-05-19T05:36:31.042Z,1006.77
2017-05-19T05:37:31.103Z,1006.7
2017-05-19T05:38:31.145Z,1006.66
2017-05-19T05:39:31.181Z,1006.69
2017-05-19T05:40:31.218Z,1006.7
2017-05-19T05:41:31.255Z,1006.72
2017-05-19T05:42:31.293Z,1006.71
2017-05-19T05:43:31.334Z,1006.68
2017-05-19T05:44:31.352Z,1006.73
2017-05-19T05:45:31.413Z,1006.77
2017-05-19T05:46:31.455Z,1006.76
2017-05-19T05:47:31.488Z,1006.71
2017-05-19T05:48:31.527Z,1006.68
2017-05-19T05:49:31.565Z,1006.71
2017-05-19T05:50:31.601Z,1006.7
2017-05-19T05:51:31.647Z,1006.75
2017-05-19T05:52:31.683Z,1006.71
2017-05-19T05:53:31.722Z,1006.76
2017-05-19T05:54:31.761Z,1006.79
2017-05-19T05:55:31.799Z,1006.76
2017-05-19T05:56:31.838Z,1006.72
2017-05-19T05:57:31.860Z,1006.71
2017-05-19T05:58:31.912Z,1006.72
2017-05-19T05:59:31.956Z,1006.77
2017-05-19T06:00:33.395Z,1006.74
2017-05-19T06:01:32.030Z,1006.79
2017-05-19T06:02:32.071Z,1006.83
2017-05-19T06:03:32.111Z,1006.83
2017-05-19T06:04:32.150Z,1006.85
2017-05-19T06:05:32.189Z,1006.86
2017-05-19T06:06:32.228Z,1006.89
2017-05-19T06:07:32.265Z,1006.87
2017-05-19T06:08:32.309Z,1006.94
2017-05-19T06:09:32.349Z,1006.94
2017-05-19T06:10:32.389Z,1006.93
2017-05-19T06:11:32.428Z,1006.97
2017-05-19T06:12:32.462Z,1006.94
2017-05-19T06:13:32.504Z,1006.91
2017-05-19T06:14:32.545Z,1006.93
2017-05-19T06:15:32.584Z,1006.93
2017-05-19T06:16:32.628Z,1006.92
2017-05-19T06:17:32.664Z,1006.9
2017-05-19T06:18:32.708Z,1006.78
2017-05-19T06:19:32.763Z,1006.88
2017-05-19T06:20:32.790Z,1006.82
2017-05-19T06:21:32.832Z,1006.87
2017-05-19T06:22:32.861Z,1006.88
2017-05-19T06:23:32.913Z,1006.87
2017-05-19T06:24:32.957Z,1006.87
2017-05-19T06:25:32.999Z,1006.89
2017-05-19T06:26:33.041Z,1006.9
2017-05-19T06:27:33.083Z,1006.9
2017-05-19T06:28:33.128Z,1006.92
2017-05-19T06:29:33.184Z,1006.91
2017-05-19T06:30:33.213Z,1006.85
2017-05-19T06:31:33.253Z,1006.85
2017-05-19T06:32:33.299Z,1006.85
2017-05-19T06:33:33.346Z,1006.88
2017-05-19T06:34:33.385Z,1006.85
2017-05-19T06:35:33.432Z,1006.94
2017-05-19T06:36:33.472Z,1006.87
2017-05-19T06:37:33.515Z,1006.95
2017-05-19T06:38:33.566Z,1006.93
2017-05-19T06:39:33.604Z,1006.96
2017-05-19T06:40:33.653Z,1006.91
2017-05-19T06:41:33.695Z,1006.93
2017-05-19T06:42:33.735Z,1006.88
2017-05-19T06:43:33.786Z,1006.87
2017-05-19T06:44:33.830Z,1006.89
2017-05-19T06:45:33.871Z,1006.87
2017-05-19T06:46:33.914Z,1006.92
2017-05-19T06:47:33.961Z,1006.87
2017-05-19T06:48:34.003Z,1006.9
2017-05-19T06:49:34.052Z,1006.89
2017-05-19T06:50:34.077Z,1006.87
2017-05-19T06:51:34.140Z,1006.9
2017-05-19T06:52:34.187Z,1006.88
2017-05-19T06:53:34.231Z,1006.92
2017-05-19T06:54:34.274Z,1006.83
2017-05-19T06:55:34.316Z,1006.78
2017-05-19T06:56:34.368Z,1006.77
2017-05-19T06:57:34.408Z,1006.8
2017-05-19T06:58:34.454Z,1006.72
2017-05-19T06:59:34.500Z,1006.75
2017-05-19T07:00:43.615Z,1006.72
2017-05-19T07:01:34.842Z,1006.72
2017-05-19T07:02:34.865Z,1006.71
2017-05-19T07:03:34.937Z,1006.75
2017-05-19T07:04:34.965Z,1006.76
2017-05-19T07:05:35.024Z,1006.77
2017-05-19T07:06:35.050Z,1006.82
2017-05-19T07:07:35.118Z,1006.74
2017-05-19T07:08:35.162Z,1006.75
2017-05-19T07:09:35.205Z,1006.69
2017-05-19T07:10:35.252Z,1006.7
2017-05-19T07:11:35.299Z,1006.74
2017-05-19T07:12:35.345Z,1006.67
2017-05-19T07:13:35.391Z,1006.73
2017-05-19T07:14:35.438Z,1006.72
2017-05-19T07:15:35.486Z,1006.78
2017-05-19T07:16:35.533Z,1006.72
2017-05-19T07:17:35.571Z,1006.68
2017-05-19T07:18:35.599Z,1006.65
2017-05-19T07:19:35.672Z,1006.67
2017-05-19T07:20:35.714Z,1006.67
2017-05-19T07:21:35.761Z,1006.66
2017-05-19T07:22:35.804Z,1006.68
2017-05-19T07:23:35.849Z,1006.65
2017-05-19T07:24:35.896Z,1006.62
2017-05-19T07:25:35.940Z,1006.63
2017-05-19T07:26:36.088Z,1006.62
2017-05-19T07:27:36.038Z,1006.66
2017-05-19T07:28:36.061Z,1006.61
2017-05-19T07:29:36.133Z,1006.59
2017-05-19T07:30:36.171Z,1006.52
2017-05-19T07:31:36.218Z,1006.53
2017-05-19T07:32:36.272Z,1006.61
2017-05-19T07:33:36.312Z,1006.49
2017-05-19T07:34:36.362Z,1006.52
2017-05-19T07:35:36.433Z,1006.5
2017-05-19T07:36:36.455Z,1006.5
2017-05-19T07:37:36.499Z,1006.5
2017-05-19T07:38:36.545Z,1006.59
2017-05-19T07:39:36.574Z,1006.67
2017-05-19T07:40:36.637Z,1006.75
2017-05-19T07:41:36.679Z,1006.75
2017-05-19T07:42:36.731Z,1006.7
2017-05-19T07:43:36.782Z,1006.69
2017-05-19T07:44:36.823Z,1006.76
2017-05-19T07:45:36.875Z,1006.71
2017-05-19T07:46:36.916Z,1006.77
2017-05-19T07:47:36.971Z,1006.74
2017-05-19T07:48:37.014Z,1006.71
2017-05-19T07:49:37.039Z,1006.78
2017-05-19T07:50:37.106Z,1006.8
2017-05-19T07:51:37.149Z,1006.77
2017-05-19T07:52:37.187Z,1006.8
2017-05-19T07:53:37.246Z,1006.8
2017-05-19T07:54:37.292Z,1006.83
2017-05-19T07:55:37.341Z,1006.84
2017-05-19T07:56:37.387Z,1006.76
2017-05-19T07:57:37.439Z,1006.75
2017-05-19T07:58:37.485Z,1006.71
2017-05-19T07:59:37.533Z,1006.72
2017-05-19T08:00:37.578Z,1006.71
2017-05-19T08:01:37.624Z,1006.68
2017-05-19T08:02:37.672Z,1006.65
2017-05-19T08:03:37.705Z,1006.63
2017-05-19T08:04:37.770Z,1006.67
2017-05-19T08:05:37.821Z,1006.65
2017-05-19T08:06:37.863Z,1006.72
2017-05-19T08:07:37.915Z,1006.73
2017-05-19T08:08:37.967Z,1006.72
2017-05-19T08:09:37.997Z,1006.67
2017-05-19T08:10:38.056Z,1006.72
2017-05-19T08:11:38.085Z,1006.73
2017-05-19T08:12:38.158Z,1006.74
2017-05-19T08:13:38.212Z,1006.73
2017-05-19T08:14:38.253Z,1006.75
2017-05-19T08:15:38.300Z,1006.71
2017-05-19T08:16:38.349Z,1006.74
2017-05-19T08:17:38.400Z,1006.72
2017-05-19T08:18:38.449Z,1006.71
2017-05-19T08:19:38.495Z,1006.76
2017-05-19T08:20:38.543Z,1006.8
2017-05-19T08:21:38.594Z,1006.82
2017-05-19T08:22:38.647Z,1006.81
2017-05-19T08:23:38.692Z,1006.82
2017-05-19T08:24:38.744Z,1006.81
2017-05-19T08:25:38.788Z,1006.84
2017-05-19T08:26:38.840Z,1006.86
2017-05-19T08:27:38.898Z,1006.85
2017-05-19T08:28:38.935Z,1006.86
2017-05-19T08:29:38.984Z,1006.87
2017-05-19T08:30:39.040Z,1006.83
2017-05-19T08:31:39.067Z,1006.91
2017-05-19T08:32:39.136Z,1006.93
2017-05-19T08:33:39.197Z,1006.89
2017-05-19T08:34:39.234Z,1006.92
2017-05-19T08:35:39.282Z,1006.82
2017-05-19T08:36:39.330Z,1006.82
2017-05-19T08:37:39.381Z,1006.81
2017-05-19T08:38:39.431Z,1006.9
2017-05-19T08:39:39.479Z,1006.98
2017-05-19T08:40:39.527Z,1006.93
2017-05-19T08:41:39.576Z,1006.85
2017-05-19T08:42:39.631Z,1006.84
2017-05-19T08:43:39.679Z,1006.91
2017-05-19T08:44:39.731Z,1006.85
2017-05-19T08:45:39.779Z,1006.94
2017-05-19T08:46:39.829Z,1006.96
2017-05-19T08:47:39.877Z,1006.94
2017-05-19T08:48:39.927Z,1006.99
2017-05-19T08:49:39.980Z,1006.98
2017-05-19T08:50:40.028Z,1006.99
2017-05-19T08:51:40.077Z,1007.01
2017-05-19T08:52:40.135Z,1007.05
2017-05-19T08:53:40.175Z,1007.04
2017-05-19T08:54:40.227Z,1007.07
2017-05-19T08:55:40.283Z,1007.05
2017-05-19T08:56:40.331Z,1007.08
2017-05-19T08:57:40.384Z,1007.08
2017-05-19T08:58:40.436Z,1007.06
2017-05-19T08:59:40.486Z,1007.02
2017-05-19T09:00:40.538Z,1007.11
2017-05-19T09:01:40.585Z,1007.03
2017-05-19T09:02:40.650Z,1007.04
2017-05-19T09:03:40.693Z,1007.02
2017-05-19T09:04:40.741Z,1007.02
2017-05-19T09:05:40.792Z,1006.98
2017-05-19T09:06:40.845Z,1007.03
2017-05-19T09:07:40.894Z,1007.08
2017-05-19T09:08:40.942Z,1006.97
2017-05-19T09:09:40.998Z,1006.97
2017-05-19T09:10:41.044Z,1006.92
2017-05-19T09:11:41.101Z,1006.92
2017-05-19T09:12:41.147Z,1006.93
2017-05-19T09:13:41.208Z,1006.96
2017-05-19T09:14:41.251Z,1006.96
2017-05-19T09:15:41.606Z,1007.04
2017-05-19T09:16:41.355Z,1006.98
2017-05-19T09:17:41.408Z,1006.95
2017-05-19T09:18:41.456Z,1006.92
2017-05-19T09:19:41.513Z,1006.92
2017-05-19T09:20:41.564Z,1006.9
2017-05-19T09:21:41.616Z,1006.91
2017-05-19T09:22:41.670Z,1006.9
2017-05-19T09:23:41.704Z,1006.94
2017-05-19T09:24:41.773Z,1006.94
2017-05-19T09:25:41.818Z,1007.02
2017-05-19T09:26:41.875Z,1006.98
2017-05-19T09:27:41.915Z,1006.94
2017-05-19T09:28:41.983Z,1006.86
2017-05-19T09:29:42.038Z,1006.95
2017-05-19T09:30:42.090Z,1006.94
2017-05-19T09:31:42.145Z,1006.92
2017-05-19T09:32:42.200Z,1006.87
2017-05-19T09:33:42.249Z,1006.88
2017-05-19T09:34:42.307Z,1006.87
2017-05-19T09:35:42.375Z,1006.75
2017-05-19T09:36:42.408Z,1006.73
2017-05-19T09:37:42.458Z,1006.77
2017-05-19T09:38:42.513Z,1006.83
2017-05-19T09:39:42.564Z,1006.87
2017-05-19T09:40:42.610Z,1006.84
2017-05-19T09:41:42.675Z,1006.83
2017-05-19T09:42:42.724Z,1006.87
2017-05-19T09:43:42.778Z,1006.82
2017-05-19T09:44:42.816Z,1006.76
2017-05-19T09:45:42.885Z,1006.73
2017-05-19T09:46:42.939Z,1006.79
2017-05-19T09:47:42.990Z,1006.81
2017-05-19T09:48:43.044Z,1006.84
2017-05-19T09:49:43.095Z,1006.83
2017-05-19T09:50:43.152Z,1006.73
2017-05-19T09:51:43.207Z,1006.64
2017-05-19T09:52:43.262Z,1006.65
2017-05-19T09:53:43.314Z,1006.72
2017-05-19T09:54:43.369Z,1006.71
2017-05-19T09:55:43.417Z,1006.7
2017-05-19T09:56:43.452Z,1006.69
2017-05-19T09:57:43.517Z,1006.75
2017-05-19T09:58:43.578Z,1006.78
2017-05-19T09:59:43.634Z,1006.79
2017-05-19T10:00:43.690Z,1006.77
2017-05-19T10:01:43.741Z,1006.75
2017-05-19T10:02:43.856Z,1006.74
2017-05-19T10:03:43.849Z,1006.77
2017-05-19T10:04:43.917Z,1006.86
2017-05-19T10:05:43.956Z,1006.88
2017-05-19T10:06:44.111Z,1006.92
2017-05-19T10:07:44.063Z,1006.88
2017-05-19T10:08:44.116Z,1006.93
2017-05-19T10:09:44.174Z,1007.02
2017-05-19T10:10:44.230Z,1007.01
2017-05-19T10:11:44.282Z,1007.06
2017-05-19T10:12:44.331Z,1007.08
2017-05-19T10:13:44.392Z,1007.07
2017-05-19T10:14:44.423Z,1007.09
2017-05-19T10:15:44.478Z,1007.05
2017-05-19T10:16:44.545Z,1007.19
2017-05-19T10:17:44.599Z,1007.21
2017-05-19T10:18:44.638Z,1007.32
2017-05-19T10:19:44.702Z,1007.36
2017-05-19T10:20:44.751Z,1007.36
2017-05-19T10:21:44.810Z,1007.42
2017-05-19T10:22:44.862Z,1007.44
2017-05-19T10:23:44.913Z,1007.46
2017-05-19T10:24:44.967Z,1007.52
2017-05-19T10:25:45.016Z,1007.58
2017-05-19T10:26:45.062Z,1007.65
2017-05-19T10:27:45.119Z,1007.59
2017-05-19T10:28:45.167Z,1007.62
2017-05-19T10:29:45.216Z,1007.8
2017-05-19T10:30:45.254Z,1007.8
2017-05-19T10:31:45.319Z,1007.79
2017-05-19T10:32:45.365Z,1007.93
2017-05-19T10:33:45.420Z,1008.02
2017-05-19T10:34:45.467Z,1008.01
2017-05-19T10:35:45.516Z,1007.98
2017-05-19T10:36:45.564Z,1007.94
2017-05-19T10:37:45.602Z,1008.01
2017-05-19T10:38:45.663Z,1008
2017-05-19T10:39:45.712Z,1007.99
2017-05-19T10:40:45.759Z,1008.35
2017-05-19T10:41:45.812Z,1008.56
2017-05-19T10:42:45.843Z,1008.76
2017-05-19T10:43:45.885Z,1008.81
2017-05-19T10:44:45.940Z,1008.77
2017-05-19T10:45:45.999Z,1008.77
2017-05-19T10:46:46.050Z,1008.59
2017-05-19T10:47:46.098Z,1008.32
2017-05-19T10:48:46.150Z,1008.29
2017-05-19T10:49:46.191Z,1008.23
2017-05-19T10:50:46.219Z,1008.43
2017-05-19T10:51:46.283Z,1008.51
2017-05-19T10:52:46.307Z,1008.62
2017-05-19T10:53:46.362Z,1007.61
2017-05-19T10:54:46.426Z,1005.92
2017-05-19T10:55:46.471Z,1005.48
2017-05-19T10:56:46.519Z,1005.45
2017-05-19T10:57:46.545Z,1005.44
2017-05-19T10:58:46.616Z,1005.38
2017-05-19T10:59:46.665Z,1005.37
2017-05-19T11:00:46.698Z,1005.35
2017-05-19T11:01:46.903Z,1005.38
2017-05-19T11:02:46.792Z,1005.39
2017-05-19T11:03:46.836Z,1005.41
2017-05-19T11:04:46.888Z,1005.4
2017-05-19T11:05:46.927Z,1005.42
2017-05-19T11:06:46.973Z,1005.35
2017-05-19T11:07:47.023Z,1005.32
2017-05-19T11:08:47.065Z,1005.34
2017-05-19T11:09:47.114Z,1005.28
2017-05-19T11:10:47.150Z,1005.33
2017-05-19T11:11:47.203Z,1005.32
2017-05-19T11:12:47.248Z,1005.27
2017-05-19T11:13:47.292Z,1005.24
2017-05-19T11:14:47.391Z,1005.21
2017-05-19T11:15:47.375Z,1005.15
2017-05-19T11:16:47.422Z,1005.14
2017-05-19T11:17:47.451Z,1005.22
2017-05-19T11:18:47.503Z,1005.14
2017-05-19T11:19:47.557Z,1005.11
2017-05-19T11:20:47.606Z,1005.13
2017-05-19T11:21:47.651Z,1005.08
2017-05-19T11:22:47.695Z,1005.12
2017-05-19T11:23:47.739Z,1005.12
2017-05-19T11:24:47.785Z,1005.09
2017-05-19T11:25:47.834Z,1005.14
2017-05-19T11:26:48.082Z,1005.14
2017-05-19T11:27:47.904Z,1005.11
2017-05-19T11:28:47.960Z,1005.13
2017-05-19T11:29:47.999Z,1005.16
2017-05-19T11:30:48.046Z,1005.08
2017-05-19T11:31:48.090Z,1005.04
2017-05-19T11:32:48.135Z,1005.1
2017-05-19T11:33:48.162Z,1005.05
2017-05-19T11:34:48.223Z,1004.97
2017-05-19T11:35:48.254Z,1005.03
2017-05-19T11:36:48.308Z,1005.01
2017-05-19T11:37:48.353Z,1005.01
2017-05-19T11:38:48.394Z,1004.99
2017-05-19T11:39:48.436Z,1005.03
2017-05-19T11:40:49.308Z,1004.99
2017-05-19T11:41:48.547Z,1004.99
2017-05-19T11:42:48.566Z,1005.02
2017-05-19T11:43:48.612Z,1005.04
2017-05-19T11:44:48.658Z,1004.96
2017-05-19T11:45:48.695Z,1004.97
2017-05-19T11:46:49.365Z,1004.93
2017-05-19T11:47:48.786Z,1004.9
2017-05-19T11:48:48.830Z,1004.9
2017-05-19T11:49:48.870Z,1004.92
2017-05-19T11:50:48.915Z,1004.91
2017-05-19T11:51:48.957Z,1004.91
2017-05-19T11:52:48.995Z,1004.91
2017-05-19T11:53:49.049Z,1004.94
2017-05-19T11:54:49.085Z,1005.03
2017-05-19T11:55:49.138Z,1004.89
2017-05-19T11:56:49.175Z,1004.93
2017-05-19T11:57:49.213Z,1004.88
2017-05-19T11:58:49.244Z,1004.9
2017-05-19T11:59:49.300Z,1004.86
2017-05-19T12:00:49.343Z,1004.93
2017-05-19T12:01:49.385Z,1004.9
2017-05-19T12:02:49.422Z,1004.92
2017-05-19T12:03:50.095Z,1004.89
2017-05-19T12:04:49.499Z,1004.86
2017-05-19T12:05:49.560Z,1004.8
2017-05-19T12:06:49.600Z,1004.82
2017-05-19T12:07:49.642Z,1004.83
2017-05-19T12:08:49.685Z,1004.85